createdAt,value
2022-11-29T00:01:18.914Z,78.82
2022-11-29T00:03:45.775Z,85.00
2022-11-29T00:06:27.083Z,128.98
2022-11-29T00:08:55.981Z,85.90
2022-11-29T00:11:43.677Z,79.00
2022-11-29T00:14:13.634Z,86.15
2022-11-29T00:16:43.168Z,73.65
2022-11-29T00:19:11.783Z,78.88
2022-11-29T00:21:38.743Z,84.17
2022-11-29T00:24:06.069Z,85.07
2022-11-29T00:26:32.838Z,92.97
2022-11-29T00:28:59.578Z,78.32
2022-11-29T00:31:32.561Z,84.50
2022-11-29T00:34:01.050Z,127.77
2022-11-29T00:36:28.366Z,88.18
2022-11-29T00:38:55.189Z,95.63
2022-11-29T00:41:22.070Z,114.43
2022-11-29T00:43:48.807Z,108.75
2022-11-29T00:46:15.552Z,237.83
2022-11-29T00:48:42.273Z,336.52
2022-11-29T00:51:09.557Z,322.63
2022-11-29T00:53:37.237Z,239.57
2022-11-29T00:56:05.362Z,143.48
2022-11-29T00:58:35.050Z,188.10
2022-11-29T01:01:02.024Z,81.25
2022-11-29T01:03:28.746Z,100.30
2022-11-29T01:06:10.401Z,184.88
2022-11-29T01:08:37.432Z,90.35
2022-11-29T01:11:22.156Z,83.23
2022-11-29T01:13:50.115Z,97.38
2022-11-29T01:16:18.052Z,74.50
2022-11-29T01:18:45.302Z,83.95
2022-11-29T01:21:15.390Z,73.38
2022-11-29T01:23:43.281Z,78.47
2022-11-29T01:26:13.687Z,68.82
2022-11-29T01:28:41.025Z,69.93
2022-11-29T01:31:18.778Z,65.07
2022-11-29T01:33:46.154Z,66.57
2022-11-29T01:36:14.324Z,66.33
2022-11-29T01:38:44.524Z,78.70
2022-11-29T01:41:29.286Z,67.50
2022-11-29T01:44:11.423Z,64.55
2022-11-29T01:46:40.750Z,62.50
2022-11-29T01:49:16.504Z,68.50
2022-11-29T01:52:04.838Z,79.38
2022-11-29T01:54:34.344Z,64.30
2022-11-29T01:57:04.357Z,62.78
2022-11-29T01:59:31.385Z,68.20
2022-11-29T02:02:05.378Z,71.47
2022-11-29T02:04:34.798Z,75.95
2022-11-29T02:07:01.822Z,72.53
2022-11-29T02:09:28.481Z,68.88
2022-11-29T02:12:15.146Z,56.60
2022-11-29T02:15:27.188Z,65.87
2022-11-29T02:18:29.252Z,59.50
2022-11-29T02:21:21.673Z,56.42
2022-11-29T02:24:07.374Z,53.33
2022-11-29T02:27:00.079Z,59.13
2022-11-29T02:30:00.418Z,56.83
2022-11-29T02:32:59.909Z,53.20
2022-11-29T02:36:09.879Z,57.80
2022-11-29T02:39:02.905Z,64.55
2022-11-29T02:41:50.707Z,61.70
2022-11-29T02:44:44.651Z,72.30
2022-11-29T02:47:20.689Z,59.65
2022-11-29T02:50:29.675Z,71.78
2022-11-29T02:53:18.102Z,75.20
2022-11-29T02:55:44.762Z,60.80
2022-11-29T02:58:26.379Z,54.77
2022-11-29T03:01:13.076Z,62.53
2022-11-29T03:04:05.548Z,72.35
2022-11-29T03:06:35.351Z,75.68
2022-11-29T03:09:18.469Z,68.45
2022-11-29T03:12:02.785Z,69.60
2022-11-29T03:14:43.886Z,75.63
2022-11-29T03:17:55.890Z,68.53
2022-11-29T03:20:42.421Z,82.07
2022-11-29T03:23:20.130Z,72.72
2022-11-29T03:25:59.922Z,103.47
2022-11-29T03:28:54.936Z,123.55
2022-11-29T03:31:36.997Z,64.40
2022-11-29T03:34:30.483Z,58.35
2022-11-29T03:37:19.934Z,72.93
2022-11-29T03:40:04.767Z,151.70
2022-11-29T03:42:38.527Z,207.73
2022-11-29T03:45:10.934Z,153.85
2022-11-29T03:47:51.506Z,204.55
2022-11-29T03:50:25.958Z,233.35
2022-11-29T03:53:03.843Z,76.07
2022-11-29T03:55:46.342Z,223.43
2022-11-29T03:58:38.362Z,103.78
2022-11-29T04:01:29.211Z,236.90
2022-11-29T04:04:23.633Z,57.22
2022-11-29T04:06:56.140Z,114.03
2022-11-29T04:09:43.961Z,192.45
2022-11-29T04:12:25.703Z,236.73
2022-11-29T04:15:17.126Z,142.05
2022-11-29T04:18:25.177Z,131.70
2022-11-29T04:21:06.969Z,89.80
2022-11-29T04:24:03.983Z,204.95
2022-11-29T04:27:27.895Z,108.10
2022-11-29T04:30:05.012Z,241.18
2022-11-29T04:32:59.359Z,232.80
2022-11-29T04:36:11.218Z,248.17
2022-11-29T04:39:02.383Z,106.13
2022-11-29T04:41:44.238Z,55.78
2022-11-29T04:44:19.844Z,135.20
2022-11-29T04:47:15.834Z,170.25
2022-11-29T04:50:05.052Z,153.17
2022-11-29T04:53:09.078Z,46.78
2022-11-29T04:55:44.509Z,49.25
2022-11-29T04:58:40.648Z,52.40
2022-11-29T05:01:20.802Z,171.98
2022-11-29T05:04:02.578Z,101.57
2022-11-29T05:07:02.892Z,149.25
2022-11-29T05:09:37.461Z,86.30
2022-11-29T05:12:28.981Z,104.60
2022-11-29T05:15:38.373Z,229.68
2022-11-29T05:18:14.076Z,200.90
2022-11-29T05:20:58.816Z,87.47
2022-11-29T05:23:39.826Z,89.00
2022-11-29T05:26:33.697Z,53.28
2022-11-29T05:29:11.731Z,52.03
2022-11-29T05:31:47.581Z,79.50
2022-11-29T05:34:41.405Z,122.63
2022-11-29T05:37:22.196Z,95.60
2022-11-29T05:39:56.039Z,104.90
2022-11-29T05:42:44.308Z,128.75
2022-11-29T05:45:22.125Z,55.67
2022-11-29T05:48:07.118Z,74.38
2022-11-29T05:50:40.155Z,73.57
2022-11-29T05:53:45.245Z,62.65
2022-11-29T05:56:25.173Z,81.93
2022-11-29T05:58:58.926Z,55.53
2022-11-29T06:01:39.488Z,84.03
2022-11-29T06:04:14.740Z,56.80
2022-11-29T06:07:03.530Z,76.07
2022-11-29T06:09:48.144Z,38.05
2022-11-29T06:12:22.185Z,35.23
2022-11-29T06:15:33.721Z,75.10
2022-11-29T06:18:22.057Z,37.03
2022-11-29T06:21:02.786Z,70.28
2022-11-29T06:24:08.686Z,41.63
2022-11-29T06:27:07.263Z,41.57
2022-11-29T06:29:51.959Z,70.63
2022-11-29T06:33:01.162Z,45.05
2022-11-29T06:35:35.428Z,90.38
2022-11-29T06:38:11.290Z,128.38
2022-11-29T06:40:38.250Z,45.73
2022-11-29T06:43:05.110Z,53.85
2022-11-29T06:45:32.270Z,55.58
2022-11-29T06:48:03.661Z,172.90
2022-11-29T06:50:48.360Z,68.70
2022-11-29T06:53:30.380Z,68.07
2022-11-29T06:56:06.274Z,48.30
2022-11-29T06:58:51.189Z,72.70
2022-11-29T07:01:44.296Z,103.47
2022-11-29T07:04:46.347Z,49.85
2022-11-29T07:07:21.472Z,124.60
2022-11-29T07:09:51.433Z,77.82
2022-11-29T07:12:18.816Z,96.75
2022-11-29T07:14:46.629Z,56.40
2022-11-29T07:17:39.673Z,67.82
2022-11-29T07:20:38.839Z,43.83
2022-11-29T07:23:30.466Z,32.42
2022-11-29T07:26:15.299Z,32.22
2022-11-29T07:29:10.500Z,32.58
2022-11-29T07:31:51.011Z,33.10
2022-11-29T07:34:38.486Z,33.33
2022-11-29T07:37:14.336Z,39.85
2022-11-29T07:40:01.314Z,37.28
2022-11-29T07:43:04.599Z,38.72
2022-11-29T07:45:36.088Z,27.17
2022-11-29T07:48:03.284Z,33.47
2022-11-29T07:50:30.629Z,45.55
2022-11-29T07:52:57.839Z,29.95
2022-11-29T07:55:26.374Z,47.10
2022-11-29T07:57:53.675Z,33.92
2022-11-29T08:00:20.991Z,33.20
2022-11-29T08:02:49.052Z,44.88
2022-11-29T08:05:16.374Z,28.65
2022-11-29T08:07:43.280Z,51.72
2022-11-29T08:10:16.151Z,33.53
2022-11-29T08:12:48.686Z,27.57
2022-11-29T08:15:15.965Z,34.20
2022-11-29T08:17:42.773Z,35.53
2022-11-29T08:20:10.970Z,30.98
2022-11-29T08:22:38.035Z,32.35
2022-11-29T08:25:06.524Z,33.50
2022-11-29T08:27:34.162Z,31.55
2022-11-29T08:30:00.802Z,40.90
2022-11-29T08:32:27.914Z,30.23
2022-11-29T08:34:54.802Z,23.98
2022-11-29T08:37:21.764Z,27.73
2022-11-29T08:39:48.657Z,27.42
2022-11-29T08:42:15.391Z,32.30
2022-11-29T08:44:42.085Z,23.70
2022-11-29T08:47:28.925Z,33.13
2022-11-29T08:50:01.746Z,21.67
2022-11-29T08:52:53.498Z,25.05
2022-11-29T08:55:22.958Z,24.52
2022-11-29T08:57:51.185Z,32.97
2022-11-29T09:00:21.132Z,23.75
2022-11-29T09:02:48.442Z,24.40
2022-11-29T09:05:15.740Z,22.25
2022-11-29T09:07:43.060Z,28.95
2022-11-29T09:10:11.538Z,29.35
2022-11-29T09:12:39.721Z,27.77
2022-11-29T09:15:11.106Z,27.40
2022-11-29T09:17:38.194Z,22.17
2022-11-29T09:20:05.962Z,23.58
2022-11-29T09:22:32.663Z,25.90
2022-11-29T09:24:59.339Z,30.23
2022-11-29T09:27:25.987Z,25.57
2022-11-29T09:29:52.605Z,26.83
2022-11-29T09:32:19.316Z,24.50
2022-11-29T09:34:46.402Z,30.45
2022-11-29T09:37:13.342Z,27.92
2022-11-29T09:39:41.555Z,28.23
2022-11-29T09:42:32.378Z,31.30
2022-11-29T09:45:02.634Z,33.08
2022-11-29T09:47:50.261Z,27.92
2022-11-29T09:50:31.097Z,28.30
2022-11-29T09:53:31.726Z,23.50
2022-11-29T09:56:36.910Z,26.88
2022-11-29T09:59:09.702Z,24.88
2022-11-29T10:01:45.166Z,24.45
2022-11-29T10:04:19.821Z,35.40
2022-11-29T10:06:58.300Z,24.73
2022-11-29T10:09:38.322Z,24.67
2022-11-29T10:12:34.898Z,29.67
2022-11-29T10:15:29.527Z,32.00
2022-11-29T10:18:03.191Z,25.88
2022-11-29T10:20:39.158Z,26.47
2022-11-29T10:23:25.449Z,43.17
2022-11-29T10:25:54.809Z,26.50
2022-11-29T10:28:30.500Z,24.33
2022-11-29T10:31:03.150Z,27.65
2022-11-29T10:33:38.773Z,24.80
2022-11-29T10:36:36.810Z,23.42
2022-11-29T10:39:14.673Z,21.70
2022-11-29T10:41:41.554Z,19.10
2022-11-29T10:44:13.057Z,23.77
2022-11-29T10:46:39.907Z,22.83
2022-11-29T10:49:12.621Z,21.85
2022-11-29T10:51:39.471Z,16.92
2022-11-29T10:54:33.740Z,21.05
2022-11-29T10:57:01.689Z,21.60
2022-11-29T10:59:30.671Z,22.20
2022-11-29T11:01:58.158Z,20.98
2022-11-29T11:04:29.898Z,19.45
2022-11-29T11:07:01.111Z,32.22
2022-11-29T11:09:44.075Z,19.98
2022-11-29T11:12:13.826Z,21.47
2022-11-29T11:14:41.563Z,24.77
2022-11-29T11:17:26.320Z,20.88
2022-11-29T11:20:01.446Z,26.30
2022-11-29T11:22:29.630Z,20.13
2022-11-29T11:25:25.535Z,19.37
2022-11-29T11:27:52.307Z,25.00
2022-11-29T11:30:28.545Z,26.10
2022-11-29T11:33:28.906Z,20.10
2022-11-29T11:36:07.011Z,21.90
2022-11-29T11:38:36.065Z,60.97
2022-11-29T11:41:14.774Z,25.08
2022-11-29T11:43:41.575Z,30.42
2022-11-29T11:46:08.617Z,22.10
2022-11-29T11:48:36.190Z,23.98
2022-11-29T11:51:03.122Z,27.20
2022-11-29T11:53:37.940Z,21.98
2022-11-29T11:56:08.244Z,24.58
2022-11-29T11:58:39.567Z,18.88
2022-11-29T12:01:12.443Z,20.17
2022-11-29T12:03:54.618Z,21.30
2022-11-29T12:06:39.466Z,22.23
2022-11-29T12:09:09.833Z,29.40
2022-11-29T12:11:44.296Z,23.42
2022-11-29T12:14:21.792Z,23.63
2022-11-29T12:16:50.123Z,26.23
2022-11-29T12:19:28.277Z,24.95
2022-11-29T12:22:01.766Z,21.50
2022-11-29T12:24:35.475Z,24.33
2022-11-29T12:27:05.785Z,25.67
2022-11-29T12:29:34.716Z,23.13
2022-11-29T12:32:46.128Z,32.70
2022-11-29T12:35:35.077Z,24.42
2022-11-29T12:38:23.913Z,32.30
2022-11-29T12:41:18.956Z,23.83
2022-11-29T12:43:57.811Z,28.37
2022-11-29T12:46:27.740Z,31.15
2022-11-29T12:49:23.057Z,28.80
2022-11-29T12:52:11.519Z,24.60
2022-11-29T12:54:57.943Z,27.75
2022-11-29T12:57:43.129Z,25.77
2022-11-29T13:00:13.495Z,25.30
2022-11-29T13:03:01.808Z,20.38
2022-11-29T13:05:54.119Z,31.67
2022-11-29T13:08:23.848Z,21.58
2022-11-29T13:11:17.309Z,25.60
2022-11-29T13:13:49.292Z,44.75
2022-11-29T13:16:36.318Z,26.33
2022-11-29T13:19:22.394Z,25.73
2022-11-29T13:22:16.018Z,29.38
2022-11-29T13:24:47.427Z,24.50
2022-11-29T13:27:20.689Z,24.27
2022-11-29T13:29:48.637Z,24.65
2022-11-29T13:32:24.458Z,24.02
2022-11-29T13:34:53.034Z,25.38
2022-11-29T13:37:55.309Z,23.40
2022-11-29T13:40:53.862Z,25.73
2022-11-29T13:43:31.421Z,27.88
2022-11-29T13:46:19.543Z,29.70
2022-11-29T13:48:49.560Z,25.38
2022-11-29T13:51:40.561Z,29.57
2022-11-29T13:54:34.063Z,23.83
2022-11-29T13:57:09.329Z,22.88
2022-11-29T13:59:45.759Z,24.52
2022-11-29T14:02:30.556Z,27.90
2022-11-29T14:04:57.391Z,26.53
2022-11-29T14:07:24.196Z,26.58
2022-11-29T14:10:01.106Z,22.55
2022-11-29T14:13:04.795Z,22.95
2022-11-29T14:15:33.230Z,25.00
2022-11-29T14:18:02.865Z,24.73
2022-11-29T14:20:29.556Z,27.92
2022-11-29T14:23:05.378Z,20.95
2022-11-29T14:25:51.047Z,25.65
2022-11-29T14:28:21.464Z,31.52
2022-11-29T14:30:53.519Z,22.60
2022-11-29T14:33:40.725Z,20.92
2022-11-29T14:36:31.409Z,21.30
2022-11-29T14:39:33.956Z,20.70
2022-11-29T14:42:21.960Z,20.05
2022-11-29T14:44:55.934Z,19.50
2022-11-29T14:47:34.358Z,19.00
2022-11-29T14:50:05.366Z,21.50
2022-11-29T14:52:51.264Z,19.33
2022-11-29T14:55:17.911Z,26.27
2022-11-29T14:57:47.820Z,19.97
2022-11-29T15:00:19.258Z,24.77
2022-11-29T15:02:55.010Z,16.20
2022-11-29T15:05:27.086Z,17.65
2022-11-29T15:08:18.900Z,26.77
2022-11-29T15:11:14.556Z,21.83
2022-11-29T15:14:04.535Z,21.73
2022-11-29T15:16:52.760Z,22.05
2022-11-29T15:19:43.415Z,18.33
2022-11-29T15:22:20.403Z,20.00
2022-11-29T15:25:18.351Z,23.70
2022-11-29T15:27:56.322Z,23.77
2022-11-29T15:30:38.222Z,24.20
2022-11-29T15:33:27.265Z,25.63
2022-11-29T15:36:04.997Z,21.63
2022-11-29T15:38:51.517Z,25.03
2022-11-29T15:41:23.157Z,23.42
2022-11-29T15:43:53.819Z,20.55
2022-11-29T15:46:24.550Z,20.60
2022-11-29T15:48:51.385Z,26.50
2022-11-29T15:51:28.238Z,29.57
2022-11-29T15:54:13.613Z,25.50
2022-11-29T15:56:52.043Z,32.75
2022-11-29T15:59:33.821Z,28.58
2022-11-29T16:02:07.663Z,30.27
2022-11-29T16:04:42.191Z,28.70
2022-11-29T16:07:12.309Z,39.80
2022-11-29T16:09:44.914Z,31.50
2022-11-29T16:12:17.807Z,35.55
2022-11-29T16:14:58.956Z,30.35
2022-11-29T16:17:31.501Z,29.60
2022-11-29T16:20:17.610Z,31.52
2022-11-29T16:22:44.461Z,29.98
2022-11-29T16:25:19.659Z,23.30
2022-11-29T16:27:47.475Z,24.60
2022-11-29T16:30:22.730Z,24.37
2022-11-29T16:32:55.815Z,25.95
2022-11-29T16:35:26.186Z,21.65
2022-11-29T16:37:53.006Z,21.45
2022-11-29T16:40:34.501Z,26.52
2022-11-29T16:43:03.918Z,27.50
2022-11-29T16:45:41.659Z,34.75
2022-11-29T16:48:25.416Z,28.33
2022-11-29T16:51:13.613Z,23.90
2022-11-29T16:53:47.512Z,30.25
2022-11-29T16:56:16.520Z,23.87
2022-11-29T16:59:21.081Z,24.90
2022-11-29T17:01:32.500Z,27.02
2022-11-29T17:04:00.433Z,26.38
2022-11-29T17:06:29.394Z,24.52
2022-11-29T17:08:57.882Z,25.30
2022-11-29T17:11:25.044Z,25.95
2022-11-29T17:13:52.077Z,26.75
2022-11-29T17:16:21.568Z,26.73
2022-11-29T17:18:49.044Z,30.70
2022-11-29T17:21:23.086Z,27.03
2022-11-29T17:23:49.849Z,26.52
2022-11-29T17:26:17.130Z,25.70
2022-11-29T17:28:45.038Z,23.45
2022-11-29T17:31:17.173Z,27.20
2022-11-29T17:33:44.224Z,31.60
2022-11-29T17:36:15.213Z,27.92
2022-11-29T17:38:43.037Z,29.98
2022-11-29T17:41:14.872Z,27.00
2022-11-29T17:43:41.804Z,32.65
2022-11-29T17:46:12.584Z,29.33
2022-11-29T17:48:39.756Z,33.30
2022-11-29T17:51:22.775Z,27.38
2022-11-29T17:53:54.874Z,26.83
2022-11-29T17:56:24.647Z,21.27
2022-11-29T17:58:53.536Z,31.13
2022-11-29T18:01:22.597Z,28.55
2022-11-29T18:03:55.957Z,25.77
2022-11-29T18:06:27.697Z,25.85
2022-11-29T18:08:57.815Z,28.33
2022-11-29T18:11:26.840Z,25.07
2022-11-29T18:13:54.889Z,27.70
2022-11-29T18:16:25.125Z,29.80
2022-11-29T18:18:59.984Z,28.20
2022-11-29T18:21:26.974Z,26.83
2022-11-29T18:23:54.040Z,25.30
2022-11-29T18:26:23.306Z,26.35
2022-11-29T18:28:50.522Z,20.67
2022-11-29T18:31:23.134Z,25.33
2022-11-29T18:33:56.601Z,24.30
2022-11-29T18:36:34.932Z,23.23
2022-11-29T18:39:09.599Z,19.58
2022-11-29T18:41:37.189Z,22.45
2022-11-29T18:44:08.905Z,24.65
2022-11-29T18:46:37.728Z,20.98
2022-11-29T18:49:09.009Z,19.83
2022-11-29T18:51:37.059Z,21.10
2022-11-29T18:54:05.061Z,18.88
2022-11-29T18:56:34.439Z,20.15
2022-11-29T18:59:06.400Z,17.55
2022-11-29T19:01:35.135Z,22.00
2022-11-29T19:04:02.033Z,23.55
2022-11-29T19:06:39.205Z,19.95
2022-11-29T19:09:08.238Z,21.45
2022-11-29T19:11:35.291Z,23.88
2022-11-29T19:14:05.028Z,16.87
2022-11-29T19:16:34.148Z,15.85
2022-11-29T19:19:01.610Z,20.83
2022-11-29T19:21:31.660Z,17.30
2022-11-29T19:24:00.269Z,16.20
2022-11-29T19:26:28.736Z,20.33
2022-11-29T19:28:56.298Z,19.77
2022-11-29T19:31:25.140Z,15.90
2022-11-29T19:33:53.237Z,13.68
2022-11-29T19:36:22.674Z,16.95
2022-11-29T19:38:53.870Z,16.67
2022-11-29T19:41:22.672Z,19.15
2022-11-29T19:43:49.827Z,15.80
2022-11-29T19:46:19.957Z,17.05
2022-11-29T19:48:47.043Z,16.08
2022-11-29T19:51:17.382Z,15.37
2022-11-29T19:53:45.497Z,16.45
2022-11-29T19:56:14.849Z,15.10
2022-11-29T19:58:42.780Z,18.25
2022-11-29T20:01:15.304Z,15.07
2022-11-29T20:03:42.518Z,14.93
2022-11-29T20:06:09.870Z,16.15
2022-11-29T20:08:37.428Z,22.25
2022-11-29T20:11:10.169Z,14.15
2022-11-29T20:13:38.337Z,18.27
2022-11-29T20:16:09.451Z,14.50
2022-11-29T20:18:39.131Z,19.00
2022-11-29T20:21:07.845Z,12.93
2022-11-29T20:23:34.608Z,15.93
2022-11-29T20:26:01.759Z,14.38
2022-11-29T20:28:28.496Z,16.67
2022-11-29T20:30:56.659Z,13.25
2022-11-29T20:33:25.265Z,15.95
2022-11-29T20:36:04.866Z,14.88
2022-11-29T20:38:43.261Z,13.77
2022-11-29T20:41:21.792Z,11.57
2022-11-29T20:43:58.169Z,14.88
2022-11-29T20:46:25.837Z,16.77
2022-11-29T20:48:53.634Z,12.68
2022-11-29T20:51:28.725Z,18.02
2022-11-29T20:53:55.444Z,19.83
2022-11-29T20:56:22.157Z,21.52
2022-11-29T20:58:48.785Z,24.65
2022-11-29T21:01:15.758Z,18.88
2022-11-29T21:03:42.479Z,18.27
2022-11-29T21:06:09.170Z,15.93
2022-11-29T21:08:35.792Z,15.50
2022-11-29T21:11:09.005Z,17.27
2022-11-29T21:13:36.111Z,15.68
2022-11-29T21:16:03.563Z,15.07
2022-11-29T21:18:31.133Z,17.87
2022-11-29T21:21:23.794Z,13.15
2022-11-29T21:23:55.198Z,16.38
2022-11-29T21:26:41.329Z,12.90
2022-11-29T21:29:22.454Z,15.48
2022-11-29T21:31:52.125Z,17.47
2022-11-29T21:34:19.637Z,13.10
2022-11-29T21:36:55.832Z,10.45
2022-11-29T21:39:24.374Z,17.17
2022-11-29T21:41:51.285Z,13.52
2022-11-29T21:44:17.923Z,12.60
2022-11-29T21:46:44.653Z,14.73
2022-11-29T21:49:11.415Z,13.43
2022-11-29T21:51:38.142Z,12.27
2022-11-29T21:54:04.853Z,14.65
2022-11-29T21:56:31.599Z,17.60
2022-11-29T21:58:58.317Z,16.90
2022-11-29T22:01:27.059Z,17.08
2022-11-29T22:03:54.166Z,20.77
2022-11-29T22:06:23.973Z,14.93
2022-11-29T22:08:50.690Z,13.60
2022-11-29T22:11:30.664Z,19.77
2022-11-29T22:14:19.270Z,14.20
2022-11-29T22:16:47.552Z,14.13
2022-11-29T22:19:17.893Z,18.85
2022-11-29T22:21:47.396Z,15.43
2022-11-29T22:24:15.357Z,21.20
2022-11-29T22:26:43.655Z,13.27
2022-11-29T22:29:11.561Z,14.63
2022-11-29T22:31:38.302Z,18.73
2022-11-29T22:34:05.030Z,17.73
2022-11-29T22:36:31.790Z,16.33
2022-11-29T22:38:59.783Z,14.75
2022-11-29T22:41:26.643Z,19.13
2022-11-29T22:43:53.587Z,18.88
2022-11-29T22:46:22.151Z,17.20
2022-11-29T22:48:52.493Z,21.95
2022-11-29T22:51:24.165Z,17.58
2022-11-29T22:53:53.120Z,17.48
2022-11-29T22:56:21.123Z,17.75
2022-11-29T22:58:47.813Z,14.77
2022-11-29T23:01:17.081Z,19.05
2022-11-29T23:03:48.307Z,18.80
2022-11-29T23:06:17.043Z,19.45
2022-11-29T23:08:45.861Z,20.58
2022-11-29T23:11:15.501Z,18.27
2022-11-29T23:13:43.739Z,19.70
2022-11-29T23:16:13.188Z,19.67
2022-11-29T23:18:42.077Z,20.42
2022-11-29T23:21:11.756Z,18.30
2022-11-29T23:23:38.697Z,18.17
2022-11-29T23:26:06.838Z,21.13
2022-11-29T23:28:34.695Z,19.42
2022-11-29T23:31:01.638Z,20.65
2022-11-29T23:33:28.926Z,19.33
2022-11-29T23:36:06.371Z,19.47
2022-11-29T23:38:34.262Z,21.65
2022-11-29T23:41:01.278Z,19.67
2022-11-29T23:43:32.226Z,23.35
2022-11-29T23:45:59.443Z,23.60
2022-11-29T23:48:26.330Z,20.23
2022-11-29T23:50:52.999Z,26.20
2022-11-29T23:53:19.734Z,21.05
2022-11-29T23:56:02.361Z,24.38
2022-11-29T23:58:30.517Z,24.58
